createdAt,value
2023-05-16T00:00:46.251Z,100387.97
2023-05-16T00:03:12.752Z,100381.69
2023-05-16T00:05:39.283Z,100381.91
2023-05-16T00:08:06.153Z,100391.78
2023-05-16T00:10:32.531Z,100390.16
2023-05-16T00:13:01.803Z,100395.88
2023-05-16T00:15:29.672Z,100397.69
2023-05-16T00:18:00.184Z,100407.16
2023-05-16T00:20:28.630Z,100404.69
2023-05-16T00:22:55.394Z,100403.84
2023-05-16T00:25:21.836Z,100399.09
2023-05-16T00:27:48.214Z,100406.25
2023-05-16T00:30:14.627Z,100406.38
2023-05-16T00:32:41.054Z,100410.69
2023-05-16T00:35:10.422Z,100400.94
2023-05-16T00:37:37.542Z,100405.97
2023-05-16T00:40:05.038Z,100414.97
2023-05-16T00:42:31.580Z,100404.75
2023-05-16T00:44:57.957Z,100405.13
2023-05-16T00:47:24.362Z,100404.88
2023-05-16T00:49:50.822Z,100426.16
2023-05-16T00:52:17.212Z,100413.28
2023-05-16T00:54:43.989Z,100419.06
2023-05-16T00:57:10.535Z,100428.88
2023-05-16T00:59:37.028Z,100419.16
2023-05-16T01:02:03.471Z,100427.56
2023-05-16T01:04:31.089Z,100430.00
2023-05-16T01:06:57.951Z,100450.63
2023-05-16T01:09:24.451Z,100437.38
2023-05-16T01:11:57.461Z,100425.50
2023-05-16T01:14:42.553Z,100442.34
2023-05-16T01:17:20.438Z,100442.06
2023-05-16T01:20:00.493Z,100446.75
2023-05-16T01:22:38.588Z,100454.34
2023-05-16T01:25:45.816Z,100454.84
2023-05-16T01:28:14.845Z,100455.53
2023-05-16T01:30:41.615Z,100455.13
2023-05-16T01:33:08.841Z,100458.72
2023-05-16T01:36:04.216Z,100464.38
2023-05-16T01:38:39.257Z,100468.06
2023-05-16T01:41:25.384Z,100479.56
2023-05-16T01:43:57.409Z,100483.31
2023-05-16T01:46:26.740Z,100484.75
2023-05-16T01:49:01.469Z,100484.41
2023-05-16T01:51:33.266Z,100489.66
2023-05-16T01:54:05.482Z,100487.56
2023-05-16T01:56:32.918Z,100487.59
2023-05-16T01:59:00.669Z,100497.13
2023-05-16T02:01:27.147Z,100505.63
2023-05-16T02:03:53.596Z,100513.09
2023-05-16T02:06:20.258Z,100513.53
2023-05-16T02:08:46.636Z,100546.03
2023-05-16T02:11:13.033Z,100527.25
2023-05-16T02:13:39.399Z,100528.09
2023-05-16T02:16:05.850Z,100523.41
2023-05-16T02:18:32.717Z,100520.16
2023-05-16T02:20:59.363Z,100532.50
2023-05-16T02:23:25.813Z,100543.47
2023-05-16T02:25:52.218Z,100536.72
2023-05-16T02:28:18.630Z,100533.84
2023-05-16T02:30:45.026Z,100541.34
2023-05-16T02:33:11.633Z,100532.22
2023-05-16T02:35:38.095Z,100543.66
2023-05-16T02:38:04.473Z,100537.13
2023-05-16T02:40:31.034Z,100545.25
2023-05-16T02:42:57.414Z,100548.19
2023-05-16T02:45:23.799Z,100546.75
2023-05-16T02:47:50.263Z,100569.91
2023-05-16T02:50:16.671Z,100568.22
2023-05-16T02:52:43.048Z,100560.56
2023-05-16T02:55:35.778Z,100568.66
2023-05-16T02:57:55.899Z,100567.06
2023-05-16T03:00:22.501Z,100578.47
2023-05-16T03:02:49.023Z,100583.34
2023-05-16T03:05:15.457Z,100571.63
2023-05-16T03:07:41.822Z,100575.13
2023-05-16T03:10:08.687Z,100600.72
2023-05-16T03:12:35.069Z,100604.69
2023-05-16T03:15:01.801Z,100604.56
2023-05-16T03:17:28.697Z,100596.16
2023-05-16T03:19:55.160Z,100612.97
2023-05-16T03:22:21.551Z,100598.59
2023-05-16T03:24:47.987Z,100602.97
2023-05-16T03:27:14.384Z,100615.09
2023-05-16T03:29:40.988Z,100616.31
2023-05-16T03:32:07.532Z,100612.53
2023-05-16T03:34:34.077Z,100620.25
2023-05-16T03:37:00.464Z,100625.63
2023-05-16T03:39:26.837Z,100637.00
2023-05-16T03:41:56.095Z,100629.53
2023-05-16T03:44:22.532Z,100635.38
2023-05-16T03:46:51.475Z,100624.84
2023-05-16T03:49:17.920Z,100620.34
2023-05-16T03:51:44.289Z,100624.78
2023-05-16T03:54:10.799Z,100627.22
2023-05-16T03:56:37.168Z,100633.66
2023-05-16T03:59:03.695Z,100628.66
2023-05-16T04:01:30.223Z,100639.47
2023-05-16T04:03:56.629Z,100628.84
2023-05-16T04:06:23.103Z,100631.84
2023-05-16T04:08:49.590Z,100642.44
2023-05-16T04:11:15.965Z,100638.00
2023-05-16T04:13:42.348Z,100639.13
2023-05-16T04:16:08.768Z,100648.47
2023-05-16T04:18:35.237Z,100652.09
2023-05-16T04:21:01.721Z,100661.53
2023-05-16T04:23:28.254Z,100670.78
2023-05-16T04:25:56.413Z,100666.28
2023-05-16T04:28:23.123Z,100674.63
2023-05-16T04:30:50.358Z,100688.47
2023-05-16T04:33:16.938Z,100682.66
2023-05-16T04:35:43.372Z,100693.56
2023-05-16T04:38:09.732Z,100692.47
2023-05-16T04:40:36.086Z,100692.03
2023-05-16T04:43:02.453Z,100689.66
2023-05-16T04:45:29.108Z,100694.44
2023-05-16T04:47:55.772Z,100690.69
2023-05-16T04:50:22.196Z,100709.19
2023-05-16T04:52:48.583Z,100694.78
2023-05-16T04:55:15.012Z,100709.31
2023-05-16T04:57:41.428Z,100711.41
2023-05-16T05:00:10.170Z,100718.59
2023-05-16T05:02:36.676Z,100727.25
2023-05-16T05:05:03.429Z,100724.41
2023-05-16T05:07:29.993Z,100729.09
2023-05-16T05:09:56.445Z,100740.03
2023-05-16T05:12:23.049Z,100743.75
2023-05-16T05:14:49.631Z,100744.94
2023-05-16T05:17:16.794Z,100739.03
2023-05-16T05:19:43.359Z,100751.53
2023-05-16T05:22:09.751Z,100755.09
2023-05-16T05:24:36.331Z,100764.72
2023-05-16T05:27:02.826Z,100759.69
2023-05-16T05:29:29.195Z,100770.00
2023-05-16T05:31:55.690Z,100757.72
2023-05-16T05:34:22.180Z,100774.16
2023-05-16T05:36:48.552Z,100770.31
2023-05-16T05:39:14.928Z,100777.66
2023-05-16T05:41:41.298Z,100779.19
2023-05-16T05:44:07.662Z,100782.56
2023-05-16T05:46:34.318Z,100779.91
2023-05-16T05:49:01.307Z,100782.88
2023-05-16T05:51:27.988Z,100788.50
2023-05-16T05:53:54.524Z,100802.25
2023-05-16T05:56:21.410Z,100800.25
2023-05-16T05:58:47.956Z,100801.78
2023-05-16T06:01:14.519Z,100806.31
2023-05-16T06:03:40.943Z,100805.50
2023-05-16T06:06:07.951Z,100806.13
2023-05-16T06:08:34.467Z,100816.53
2023-05-16T06:11:01.541Z,100818.16
2023-05-16T06:13:27.925Z,100810.91
2023-05-16T06:15:54.551Z,100814.31
2023-05-16T06:18:21.280Z,100818.75
2023-05-16T06:20:47.654Z,100820.38
2023-05-16T06:23:14.046Z,100826.06
2023-05-16T06:25:40.417Z,100816.66
2023-05-16T06:28:06.783Z,100813.16
2023-05-16T06:30:33.154Z,100813.47
2023-05-16T06:32:59.696Z,100811.44
2023-05-16T06:35:26.398Z,100818.44
2023-05-16T06:37:52.907Z,100822.66
2023-05-16T06:40:19.286Z,100829.94
2023-05-16T06:42:45.732Z,100822.22
2023-05-16T06:45:12.270Z,100833.91
2023-05-16T06:47:38.787Z,100854.34
2023-05-16T06:50:06.069Z,100849.03
2023-05-16T06:52:32.469Z,100863.56
2023-05-16T06:54:58.874Z,100854.78
2023-05-16T06:57:25.329Z,100851.25
2023-05-16T06:59:51.746Z,100860.41
2023-05-16T07:02:18.211Z,100859.16
2023-05-16T07:04:44.669Z,100871.06
2023-05-16T07:07:11.100Z,100866.88
2023-05-16T07:09:37.549Z,100863.56
2023-05-16T07:12:04.351Z,100871.25
2023-05-16T07:14:30.766Z,100861.78
2023-05-16T07:16:57.199Z,100878.13
2023-05-16T07:19:23.835Z,100871.88
2023-05-16T07:21:50.374Z,100871.38
2023-05-16T07:24:16.794Z,100878.22
2023-05-16T07:26:43.431Z,100876.34
2023-05-16T07:29:09.874Z,100872.53
2023-05-16T07:31:36.373Z,100881.41
2023-05-16T07:34:02.847Z,100887.50
2023-05-16T07:36:29.319Z,100905.31
2023-05-16T07:38:55.736Z,100883.78
2023-05-16T07:41:22.210Z,100889.94
2023-05-16T07:43:48.727Z,100883.09
2023-05-16T07:46:15.455Z,100892.53
2023-05-16T07:48:42.000Z,100888.97
2023-05-16T07:51:08.499Z,100884.25
2023-05-16T07:53:34.950Z,100892.59
2023-05-16T07:56:01.440Z,100907.31
2023-05-16T07:58:27.883Z,100907.75
2023-05-16T08:00:54.597Z,100893.66
2023-05-16T08:03:21.286Z,100903.75
2023-05-16T08:05:49.080Z,100914.47
2023-05-16T08:08:15.653Z,100904.63
2023-05-16T08:10:42.086Z,100909.94
2023-05-16T08:13:08.571Z,100911.50
2023-05-16T08:15:35.836Z,100931.03
2023-05-16T08:18:02.354Z,100931.06
2023-05-16T08:20:28.845Z,100936.44
2023-05-16T08:22:55.335Z,100944.56
2023-05-16T08:25:21.754Z,100944.84
2023-05-16T08:27:49.865Z,100940.69
2023-05-16T08:30:16.373Z,100952.19
2023-05-16T08:32:42.934Z,100950.16
2023-05-16T08:35:11.026Z,100950.16
2023-05-16T08:37:37.559Z,100949.84
2023-05-16T08:40:05.794Z,100950.72
2023-05-16T08:42:33.768Z,100944.28
2023-05-16T08:45:00.287Z,100947.22
2023-05-16T08:47:30.021Z,100944.59
2023-05-16T08:49:58.400Z,100950.19
2023-05-16T08:52:30.587Z,100944.84
2023-05-16T08:55:10.073Z,100936.31
2023-05-16T08:57:38.871Z,100936.56
2023-05-16T09:00:11.889Z,100937.69
2023-05-16T09:02:43.216Z,100940.78
2023-05-16T09:05:12.608Z,100928.75
2023-05-16T09:07:39.260Z,100935.16
2023-05-16T09:10:07.026Z,100933.81
2023-05-16T09:12:34.022Z,100926.19
2023-05-16T09:15:03.114Z,100943.88
2023-05-16T09:17:44.231Z,100924.34
2023-05-16T09:20:16.539Z,100931.88
2023-05-16T09:22:56.858Z,100940.94
2023-05-16T09:25:31.486Z,100950.41
2023-05-16T09:28:01.448Z,100954.31
2023-05-16T09:30:33.714Z,100948.72
2023-05-16T09:33:00.465Z,100952.25
2023-05-16T09:37:56.782Z,100955.97
2023-05-16T09:40:24.060Z,100966.50
2023-05-16T09:43:07.173Z,100970.81
2023-05-16T09:45:35.299Z,100974.91
2023-05-16T09:48:08.396Z,100984.44
2023-05-16T09:50:37.196Z,100976.16
2023-05-16T09:53:04.106Z,100986.84
2023-05-16T09:55:31.521Z,100990.97
2023-05-16T09:57:58.226Z,100990.88
2023-05-16T10:00:33.549Z,100994.81
2023-05-16T10:03:04.769Z,100996.06
2023-05-16T10:05:32.838Z,101004.75
2023-05-16T10:07:59.850Z,101003.13
2023-05-16T10:10:27.207Z,100994.50
2023-05-16T10:12:58.619Z,101003.28
2023-05-16T10:15:26.046Z,100996.47
2023-05-16T10:17:56.500Z,100997.09
2023-05-16T10:20:24.226Z,101000.78
2023-05-16T10:22:55.175Z,100984.13
2023-05-16T10:25:38.893Z,100987.44
2023-05-16T10:28:07.094Z,100984.63
2023-05-16T10:30:34.901Z,100991.88
2023-05-16T10:33:04.245Z,100990.28
2023-05-16T10:35:35.063Z,100995.81
2023-05-16T10:38:02.581Z,100996.69
2023-05-16T10:40:30.475Z,100994.94
2023-05-16T10:43:02.070Z,101015.56
2023-05-16T10:45:29.044Z,101009.69
2023-05-16T10:47:58.890Z,101026.50
2023-05-16T10:50:45.398Z,101037.78
2023-05-16T10:53:31.577Z,101028.97
2023-05-16T10:56:01.209Z,101026.50
2023-05-16T10:58:35.084Z,101027.91
2023-05-16T11:01:20.668Z,101013.63
2023-05-16T11:04:02.543Z,101008.44
2023-05-16T11:06:33.089Z,101010.47
2023-05-16T11:09:10.164Z,101009.41
2023-05-16T11:11:49.417Z,101001.22
2023-05-16T11:14:25.826Z,101018.50
2023-05-16T11:17:03.407Z,101011.69
2023-05-16T11:19:34.185Z,101014.00
2023-05-16T11:22:11.718Z,101036.13
2023-05-16T11:24:39.716Z,101021.16
2023-05-16T11:27:06.831Z,101034.50
2023-05-16T11:29:35.071Z,101028.72
2023-05-16T11:32:03.737Z,101037.47
2023-05-16T11:34:31.605Z,101032.09
2023-05-16T11:37:00.123Z,101025.56
2023-05-16T11:39:26.640Z,101016.53
2023-05-16T11:41:56.076Z,101012.59
2023-05-16T11:44:22.490Z,101019.94
2023-05-16T11:46:48.926Z,101025.44
2023-05-16T11:49:15.546Z,101003.47
2023-05-16T11:51:43.339Z,101019.88
2023-05-16T11:54:10.507Z,101008.09
2023-05-16T11:56:37.415Z,101020.09
2023-05-16T11:59:04.490Z,101018.34
2023-05-16T12:01:39.041Z,101008.38
2023-05-16T12:04:13.698Z,101018.94
2023-05-16T12:06:41.011Z,101019.56
2023-05-16T12:09:11.580Z,101018.78
2023-05-16T12:11:38.511Z,101022.53
2023-05-16T12:14:10.362Z,101027.69
2023-05-16T12:16:38.907Z,101028.22
2023-05-16T12:19:07.079Z,101021.47
2023-05-16T12:21:34.056Z,101029.56
2023-05-16T12:24:00.799Z,101018.97
2023-05-16T12:26:30.766Z,101028.31
2023-05-16T12:29:00.734Z,101031.41
2023-05-16T12:31:32.347Z,101031.91
2023-05-16T12:33:59.379Z,101031.91
2023-05-16T12:36:26.465Z,101033.53
2023-05-16T12:38:53.691Z,101057.66
2023-05-16T12:41:21.699Z,101037.06
2023-05-16T12:43:49.040Z,101034.50
2023-05-16T12:46:16.348Z,101035.91
2023-05-16T12:48:44.132Z,101041.75
2023-05-16T12:51:18.203Z,101042.34
2023-05-16T12:53:57.720Z,101044.28
2023-05-16T12:56:32.397Z,101034.50
2023-05-16T12:58:58.820Z,101043.09
2023-05-16T13:01:25.349Z,101038.47
2023-05-16T13:03:51.939Z,101041.56
2023-05-16T13:06:18.558Z,101026.66
2023-05-16T13:08:44.969Z,101018.44
2023-05-16T13:11:11.390Z,101019.81
2023-05-16T13:13:37.800Z,101018.56
2023-05-16T13:16:04.450Z,101020.44
2023-05-16T13:18:31.573Z,101029.81
2023-05-16T13:20:58.301Z,101005.25
2023-05-16T13:23:24.750Z,101015.38
2023-05-16T13:25:53.009Z,101005.13
2023-05-16T13:28:19.438Z,101010.31
2023-05-16T13:30:45.946Z,101006.22
2023-05-16T13:33:12.596Z,100999.69
2023-05-16T13:35:39.155Z,101006.53
2023-05-16T13:38:05.555Z,101008.38
2023-05-16T13:40:32.795Z,101004.56
2023-05-16T13:43:00.948Z,101017.69
2023-05-16T13:45:27.813Z,101016.22
2023-05-16T13:47:54.632Z,101035.19
2023-05-16T13:50:21.478Z,101024.00
2023-05-16T13:52:48.752Z,101030.38
2023-05-16T13:55:15.227Z,101025.00
2023-05-16T13:57:41.784Z,101034.22
2023-05-16T14:00:35.124Z,101024.06
2023-05-16T14:02:58.891Z,101023.88
2023-05-16T14:05:26.216Z,101020.19
2023-05-16T14:07:52.653Z,101021.50
2023-05-16T14:10:19.125Z,101013.97
2023-05-16T14:12:45.534Z,101018.53
2023-05-16T14:15:12.233Z,101006.41
2023-05-16T14:17:38.838Z,101015.25
2023-05-16T14:20:11.467Z,101033.84
2023-05-16T14:22:38.491Z,101041.81
2023-05-16T14:25:06.183Z,101035.69
2023-05-16T14:27:32.618Z,101025.03
2023-05-16T14:29:59.650Z,101038.13
2023-05-16T14:32:26.196Z,101037.72
2023-05-16T14:34:52.797Z,101044.56
2023-05-16T14:37:20.238Z,101032.97
2023-05-16T14:39:47.295Z,101036.50
2023-05-16T14:42:13.733Z,101046.56
2023-05-16T14:44:40.152Z,101037.03
2023-05-16T14:47:06.749Z,101046.25
2023-05-16T14:49:33.224Z,101035.09
2023-05-16T14:51:59.684Z,101031.78
2023-05-16T14:54:26.118Z,101032.84
2023-05-16T14:56:52.542Z,101028.19
2023-05-16T14:59:19.043Z,101019.56
2023-05-16T15:01:45.566Z,101025.94
2023-05-16T15:04:12.006Z,101005.31
2023-05-16T15:06:38.401Z,101014.34
2023-05-16T15:09:05.788Z,101032.00
2023-05-16T15:11:32.247Z,101014.38
2023-05-16T15:13:58.833Z,101012.53
2023-05-16T15:16:25.385Z,101009.84
2023-05-16T15:18:51.860Z,101007.00
2023-05-16T15:21:18.315Z,101003.91
2023-05-16T15:23:45.382Z,101017.31
2023-05-16T15:26:11.797Z,101002.50
2023-05-16T15:28:38.538Z,101018.84
2023-05-16T15:31:05.850Z,101002.78
2023-05-16T15:33:32.301Z,101012.44
2023-05-16T15:35:58.701Z,101019.72
2023-05-16T15:38:25.151Z,101006.19
2023-05-16T15:41:05.079Z,101016.66
2023-05-16T15:43:38.649Z,101023.22
2023-05-16T15:46:06.719Z,101031.69
2023-05-16T15:48:33.187Z,101027.25
2023-05-16T15:50:59.641Z,101033.78
2023-05-16T15:53:26.356Z,101027.69
2023-05-16T15:55:52.758Z,101019.38
2023-05-16T15:58:22.548Z,101025.81
2023-05-16T16:00:49.224Z,101038.78
2023-05-16T16:03:15.701Z,101036.84
2023-05-16T16:05:42.206Z,101013.91
2023-05-16T16:08:08.631Z,101019.53
2023-05-16T16:10:35.288Z,101047.66
2023-05-16T16:13:02.899Z,101031.22
2023-05-16T16:15:33.186Z,101024.19
2023-05-16T16:18:00.571Z,101034.75
2023-05-16T16:20:27.199Z,101039.75
2023-05-16T16:22:53.689Z,101034.09
2023-05-16T16:25:20.171Z,101034.78
2023-05-16T16:27:46.572Z,101038.44
2023-05-16T16:30:13.110Z,101043.44
2023-05-16T16:32:39.611Z,101047.94
2023-05-16T16:35:06.249Z,101043.56
2023-05-16T16:37:32.917Z,101034.81
2023-05-16T16:39:59.461Z,101023.16
2023-05-16T16:42:26.822Z,101031.25
2023-05-16T16:44:53.655Z,101017.97
2023-05-16T16:47:21.266Z,101024.13
2023-05-16T16:49:47.674Z,101021.81
2023-05-16T16:52:14.106Z,101026.66
2023-05-16T16:54:40.686Z,101006.38
2023-05-16T16:57:07.200Z,101003.72
2023-05-16T16:59:33.620Z,101007.31
2023-05-16T17:02:00.196Z,101006.38
2023-05-16T17:04:26.610Z,101032.72
2023-05-16T17:06:53.055Z,101025.47
2023-05-16T17:09:19.782Z,101007.31
2023-05-16T17:11:46.783Z,101027.03
2023-05-16T17:14:14.372Z,101020.63
2023-05-16T17:16:41.154Z,101030.75
2023-05-16T17:19:08.884Z,101019.03
2023-05-16T17:21:36.843Z,101044.94
2023-05-16T17:24:03.770Z,101028.22
2023-05-16T17:26:31.610Z,101032.63
2023-05-16T17:29:00.158Z,101037.06
2023-05-16T17:31:27.175Z,101036.31
2023-05-16T17:33:53.943Z,101046.66
2023-05-16T17:36:20.729Z,101052.88
2023-05-16T17:38:47.676Z,101061.03
2023-05-16T17:41:14.501Z,101063.84
2023-05-16T17:43:41.259Z,101061.28
2023-05-16T17:46:08.281Z,101069.06
2023-05-16T17:48:34.754Z,101076.31
2023-05-16T17:51:01.808Z,101069.78
2023-05-16T17:53:29.531Z,101107.03
2023-05-16T17:55:56.682Z,101081.72
2023-05-16T17:58:23.457Z,101086.53
2023-05-16T18:00:49.920Z,101094.72
2023-05-16T18:03:16.985Z,101095.78
2023-05-16T18:05:43.582Z,101111.91
2023-05-16T18:08:10.057Z,101115.22
2023-05-16T18:10:50.269Z,101116.16
2023-05-16T18:13:17.945Z,101109.72
2023-05-16T18:15:44.383Z,101123.09
2023-05-16T18:18:11.058Z,101129.19
2023-05-16T18:20:37.715Z,101133.06
2023-05-16T18:23:04.251Z,101140.91
2023-05-16T18:25:31.677Z,101137.81
2023-05-16T18:27:58.089Z,101155.09
2023-05-16T18:30:24.562Z,101154.84
2023-05-16T18:32:51.148Z,101170.38
2023-05-16T18:35:17.668Z,101157.69
2023-05-16T18:37:44.548Z,101165.84
2023-05-16T18:40:11.494Z,101169.44
2023-05-16T18:42:37.913Z,101162.84
2023-05-16T18:45:04.654Z,101171.28
2023-05-16T18:47:31.435Z,101161.06
2023-05-16T18:49:57.959Z,101161.38
2023-05-16T18:52:24.392Z,101171.09
2023-05-16T18:54:50.824Z,101171.56
2023-05-16T18:57:17.667Z,101170.97
2023-05-16T18:59:44.124Z,101176.69
2023-05-16T19:02:10.571Z,101184.63
2023-05-16T19:04:39.904Z,101186.38
2023-05-16T19:07:07.934Z,101192.25
2023-05-16T19:09:35.851Z,101202.81
2023-05-16T19:12:03.393Z,101210.63
2023-05-16T19:14:29.821Z,101220.06
2023-05-16T19:16:56.266Z,101211.34
2023-05-16T19:19:22.866Z,101205.53
2023-05-16T19:21:49.722Z,101228.69
2023-05-16T19:24:16.363Z,101226.81
2023-05-16T19:26:42.785Z,101236.50
2023-05-16T19:29:10.658Z,101234.78
2023-05-16T19:31:37.189Z,101239.00
2023-05-16T19:34:03.655Z,101246.97
2023-05-16T19:36:30.206Z,101253.13
2023-05-16T19:38:56.634Z,101251.25
2023-05-16T19:41:24.593Z,101251.91
2023-05-16T19:43:51.511Z,101249.72
2023-05-16T19:46:17.931Z,101250.50
2023-05-16T19:48:44.471Z,101255.19
2023-05-16T19:51:10.921Z,101261.94
2023-05-16T19:53:37.421Z,101259.38
2023-05-16T19:56:04.695Z,101258.81
2023-05-16T19:58:31.164Z,101264.81
2023-05-16T20:00:58.552Z,101275.06
2023-05-16T20:03:25.273Z,101280.31
2023-05-16T20:05:51.814Z,101276.69
2023-05-16T20:08:18.239Z,101280.44
2023-05-16T20:10:44.989Z,101283.22
2023-05-16T20:13:11.387Z,101276.91
2023-05-16T20:15:37.811Z,101269.84
2023-05-16T20:18:04.373Z,101274.84
2023-05-16T20:20:30.884Z,101272.03
2023-05-16T20:22:57.315Z,101283.59
2023-05-16T20:25:23.719Z,101278.53
2023-05-16T20:27:50.171Z,101288.84
2023-05-16T20:30:16.671Z,101286.38
2023-05-16T20:32:43.102Z,101289.69
2023-05-16T20:35:11.187Z,101301.16
2023-05-16T20:37:37.681Z,101290.34
2023-05-16T20:40:05.999Z,101289.88
2023-05-16T20:42:32.420Z,101293.94
2023-05-16T20:44:58.839Z,101294.44
2023-05-16T20:47:25.395Z,101295.84
2023-05-16T20:49:51.824Z,101294.22
2023-05-16T20:52:19.863Z,101298.59
2023-05-16T20:54:47.721Z,101292.75
2023-05-16T20:57:14.129Z,101293.41
2023-05-16T20:59:40.870Z,101294.97
2023-05-16T21:02:09.983Z,101291.09
2023-05-16T21:04:37.423Z,101290.09
2023-05-16T21:07:05.352Z,101297.31
2023-05-16T21:09:33.701Z,101300.78
2023-05-16T21:12:00.117Z,101300.63
2023-05-16T21:14:26.591Z,101304.69
2023-05-16T21:16:52.997Z,101303.09
2023-05-16T21:19:19.559Z,101305.88
2023-05-16T21:21:46.269Z,101304.81
2023-05-16T21:24:12.659Z,101310.38
2023-05-16T21:26:39.084Z,101315.09
2023-05-16T21:29:05.519Z,101311.81
2023-05-16T21:31:31.960Z,101300.97
2023-05-16T21:33:58.465Z,101315.69
2023-05-16T21:36:24.961Z,101316.72
2023-05-16T21:38:51.469Z,101323.19
2023-05-16T21:41:18.221Z,101313.97
2023-05-16T21:43:44.690Z,101325.16
2023-05-16T21:46:11.112Z,101317.38
2023-05-16T21:48:37.685Z,101317.63
2023-05-16T21:51:04.258Z,101316.72
2023-05-16T21:53:30.661Z,101317.78
2023-05-16T21:55:57.109Z,101309.94
2023-05-16T21:58:25.105Z,101316.38
2023-05-16T22:00:51.542Z,101316.66
2023-05-16T22:03:20.933Z,101311.44
2023-05-16T22:05:47.707Z,101323.25
2023-05-16T22:08:14.192Z,101315.09
2023-05-16T22:10:40.629Z,101325.81
2023-05-16T22:13:08.040Z,101324.41
2023-05-16T22:15:34.750Z,101327.44
2023-05-16T22:18:01.351Z,101335.41
2023-05-16T22:20:27.933Z,101333.22
2023-05-16T22:22:54.349Z,101338.59
2023-05-16T22:25:20.826Z,101329.38
2023-05-16T22:27:47.236Z,101329.38
2023-05-16T22:30:13.692Z,101324.72
2023-05-16T22:32:40.213Z,101324.16
2023-05-16T22:35:07.030Z,101325.63
2023-05-16T22:37:33.440Z,101326.63
2023-05-16T22:39:59.860Z,101329.94
2023-05-16T22:42:26.310Z,101328.38
2023-05-16T22:44:52.729Z,101337.34
2023-05-16T22:47:19.509Z,101335.72
2023-05-16T22:49:45.910Z,101334.88
2023-05-16T22:52:12.344Z,101337.41
2023-05-16T22:54:38.796Z,101340.41
2023-05-16T22:57:05.376Z,101335.28
2023-05-16T22:59:31.952Z,101337.41
2023-05-16T23:01:58.791Z,101337.66
2023-05-16T23:04:25.347Z,101331.81
2023-05-16T23:06:51.806Z,101337.22
2023-05-16T23:09:18.229Z,101347.22
2023-05-16T23:11:44.638Z,101348.28
2023-05-16T23:14:11.128Z,101347.41
2023-05-16T23:16:37.571Z,101344.63
2023-05-16T23:19:05.010Z,101342.56
2023-05-16T23:21:32.537Z,101340.28
2023-05-16T23:23:58.976Z,101339.88
2023-05-16T23:26:25.431Z,101348.31
2023-05-16T23:28:52.117Z,101345.91
2023-05-16T23:31:18.526Z,101358.13
2023-05-16T23:33:45.026Z,101359.25
2023-05-16T23:36:11.484Z,101357.44
2023-05-16T23:38:38.429Z,101351.34
2023-05-16T23:41:04.887Z,101365.19
2023-05-16T23:43:31.304Z,101358.31
2023-05-16T23:45:57.729Z,101353.00
2023-05-16T23:48:24.310Z,101361.94
2023-05-16T23:50:51.474Z,101363.25
2023-05-16T23:53:17.906Z,101364.25
2023-05-16T23:55:44.359Z,101369.16
2023-05-16T23:58:10.852Z,101361.22
